KCXO/CXO METAR and TAF weather

Enter ICAO airport designator
Station Type Date Time Source
KCXO METAR 2019/06/24 23:53 UTC NOAA

KCXO 242353Z 17012KT 10SM CLR 28/22 A2988 RMK AO2 SLP116 T02830217 10311 20261 58022


Station Type Date Time Source
KCXO Decoded METAR 2019/06/24 23:53 UTC NOAA

LONE STAR EXECUTIVE AIRPORT, TX, United States (KCXO) 30-21N 95-25W 75M
Jun 24, 2019 - 07:53 PM EDT / 2019.06.24 2353 UTC
Wind: from the S (170 degrees) at 14 MPH (12 KT):0
Visibility: 10 mile(s):0
Sky conditions: clear
Temperature: 82.9 F (28.3 C)
Dew Point: 71.1 F (21.7 C)
Relative Humidity: 67%
Pressure (altimeter): 29.88 in. Hg (1011 hPa)
Pressure tendency: 0.06 inches (2.2 hPa) lower than three hours ago
ob: KCXO 242353Z 17012KT 10SM CLR 28/22 A2988 RMK AO2 SLP116 T02830217 10311 20261 58022
cycle: 0

Station Type Date Time Source
KCXO TAF 2019/06/24 18:30 UTC NOAA

TAF KCXO 241727Z 2418/2518 18008KT P6SM SCT020 BKN250
FM242000 17010KT P6SM VCSH SCT030 SCT250
FM250100 16007KT P6SM SCT030 SCT250
FM251000 15005KT P6SM VCSH SCT025 BKN120
FM251500 16009KT P6SM VCSH SCT030 BKN100

Example: see airport list